Terminal Aerodrome Forecast
Issued by NWS

Home | Current Version | Previous Version | Text Only | Print | Product List | Glossary Off
Versions: 1 2 3 4 5 6 7 8 9 10 11 12 13 14 15 16 17 18 19 20

000
FTUS43 KTOP 110938 AAA
TAFMHK
TAF AMD
KMHK 110938Z 1110/1206 03008KT P6SM SCT030 SCT130
     FM111030 04006KT P6SM BKN007
     FM111400 06005KT P6SM BKN012
     FM111800 17008KT P6SM SCT020 SCT100=

USA.gov is the U.S. government's official web portal to all federal, state and local government web resources and services.